sensor_id;sensor_type;location;lat;lon;timestamp;pressure;altitude;pressure_sealevel;temperature;humidity
17950;BME280;9100;48.700;9.316;2022-07-12T00:00:25;98385.2;;;19.1;100
17950;BME280;9100;48.700;9.316;2022-07-12T00:01:25;98377;;;19.07;100
17950;BME280;9100;48.700;9.316;2022-07-12T00:02:25;98388.59999999999;;;19.11;100
17950;BME280;9100;48.700;9.316;2022-07-12T00:03:25;98384.40000000001;;;19.1;100
17950;BME280;9100;48.700;9.316;2022-07-12T00:03:54;98385.2;;;19.1;100
17950;BME280;9100;48.700;9.316;2022-07-12T00:04:25;98385.2;;;19.1;100
17950;BME280;9100;48.700;9.316;2022-07-12T00:05:25;98390.4;;;19.1;100
17950;BME280;9100;48.700;9.316;2022-07-12T00:06:25;98379;;;19.11;100
17950;BME280;9100;48.700;9.316;2022-07-12T00:07:25;98386;;;19.11;100
17950;BME280;9100;48.700;9.316;2022-07-12T00:08:25;98385.2;;;19.1;100
17950;BME280;9100;48.700;9.316;2022-07-12T00:08:54;98385.2;;;19.1;100
17950;BME280;9100;48.700;9.316;2022-07-12T00:09:25;98390.4;;;19.1;100
17950;BME280;9100;48.700;9.316;2022-07-12T00:10:25;98342.8;;;18.8;100
17950;BME280;9100;48.700;9.316;2022-07-12T00:11:25;98391.2;;;19.11;100
17950;BME280;9100;48.700;9.316;2022-07-12T00:12:25;98394;;;19.09;100
17950;BME280;9100;48.700;9.316;2022-07-12T00:13:25;98399.2;;;19.09;100
17950;BME280;9100;48.700;9.316;2022-07-12T00:13:54;98397.6;;;19.08;100
17950;BME280;9100;48.700;9.316;2022-07-12T00:14:25;98387.2;;;19.08;100
17950;BME280;9100;48.700;9.316;2022-07-12T00:15:25;98392.4;;;19.08;100
17950;BME280;9100;48.700;9.316;2022-07-12T00:16:25;98397.6;;;19.08;100
17950;BME280;9100;48.700;9.316;2022-07-12T00:17:25;98401.4;;;19.06;100
17950;BME280;9100;48.700;9.316;2022-07-12T00:18:25;98389.3;;;19;100
17950;BME280;9100;48.700;9.316;2022-07-12T00:18:54;98397.40000000001;;;19.03;100
17950;BME280;9100;48.700;9.316;2022-07-12T00:19:25;98399;;;19.04;100
17950;BME280;9100;48.700;9.316;2022-07-12T00:20:25;98394.8;;;19.03;100
17950;BME280;9100;48.700;9.316;2022-07-12T00:21:25;98408;;;19.02;100
17950;BME280;9100;48.700;9.316;2022-07-12T00:22:25;98400.40000000001;;;19;100
17950;BME280;9100;48.700;9.316;2022-07-12T00:23:25;98402.20000000001;;;19;100
17950;BME280;9100;48.700;9.316;2022-07-12T00:23:54;98403.2;;;18.99;100
17950;BME280;9100;48.700;9.316;2022-07-12T00:24:25;98396.90000000001;;;18.95;100
17950;BME280;9100;48.700;9.316;2022-07-12T00:25:25;98410;;;19;100
17950;BME280;9100;48.700;9.316;2022-07-12T00:26:25;98409.2;;;18.99;100
17950;BME280;9100;48.700;9.316;2022-07-12T00:27:25;98399.1;;;18.98;100
17950;BME280;9100;48.700;9.316;2022-07-12T00:28:25;98406.1;;;18.97;100
17950;BME280;9100;48.700;9.316;2022-07-12T00:28:54;98403.5;;;18.97;100
17950;BME280;9100;48.700;9.316;2022-07-12T00:29:25;98404.3;;;18.98;100
17950;BME280;9100;48.700;9.316;2022-07-12T00:30:25;98406.1;;;18.97;100
17950;BME280;9100;48.700;9.316;2022-07-12T00:31:25;98404.5;;;18.96;100
17950;BME280;9100;48.700;9.316;2022-07-12T00:32:25;98401.70000000001;;;18.98;100
17950;BME280;9100;48.700;9.316;2022-07-12T00:33:25;98386.40000000001;;;18.89;100
17950;BME280;9100;48.700;9.316;2022-07-12T00:33:54;98405.9;;;18.92;100
17950;BME280;9100;48.700;9.316;2022-07-12T00:34:25;98399.7;;;18.93;100
17950;BME280;9100;48.700;9.316;2022-07-12T00:35:25;98406.9;;;18.91;100
17950;BME280;9100;48.700;9.316;2022-07-12T00:36:25;98401.70000000001;;;18.91;100
17950;BME280;9100;48.700;9.316;2022-07-12T00:37:25;98341.6;;;18.58;100
17950;BME280;9100;48.700;9.316;2022-07-12T00:38:25;98401.70000000001;;;18.91;100
17950;BME280;9100;48.700;9.316;2022-07-12T00:38:54;98388;;;18.91;100
17950;BME280;9100;48.700;9.316;2022-07-12T00:39:25;98393.9;;;18.91;100
17950;BME280;9100;48.700;9.316;2022-07-12T00:40:25;98390;;;18.88;100
17950;BME280;9100;48.700;9.316;2022-07-12T00:41:25;98344.6;;;18.55;100
17950;BME280;9100;48.700;9.316;2022-07-12T00:42:25;98397.40000000001;;;18.85;100
17950;BME280;9100;48.700;9.316;2022-07-12T00:43:25;98393.6;;;18.81;100
17950;BME280;9100;48.700;9.316;2022-07-12T00:43:54;98384.5;;;18.78;100
17950;BME280;9100;48.700;9.316;2022-07-12T00:44:25;98394.6;;;18.8;100
17950;BME280;9100;48.700;9.316;2022-07-12T00:45:25;98393.1;;;18.79;100
17950;BME280;9100;48.700;9.316;2022-07-12T00:46:25;98393.9;;;18.79;100
17950;BME280;9100;48.700;9.316;2022-07-12T00:47:28;98390.5;;;18.72;100
17950;BME280;9100;48.700;9.316;2022-07-12T00:48:25;98394.9;;;18.72;100
17950;BME280;9100;48.700;9.316;2022-07-12T00:48:54;98398.7;;;18.76;100
17950;BME280;9100;48.700;9.316;2022-07-12T00:49:25;98401;;;18.77;100
17950;BME280;9100;48.700;9.316;2022-07-12T00:50:25;98402.8;;;18.77;100
17950;BME280;9100;48.700;9.316;2022-07-12T00:51:25;98401;;;18.77;100
17950;BME280;9100;48.700;9.316;2022-07-12T00:52:25;98404.6;;;18.76;100
17950;BME280;9100;48.700;9.316;2022-07-12T00:53:25;98400.7;;;18.74;100
17950;BME280;9100;48.700;9.316;2022-07-12T00:53:54;98398.1;;;18.74;100
17950;BME280;9100;48.700;9.316;2022-07-12T00:54:25;98393.7;;;18.74;100
17950;BME280;9100;48.700;9.316;2022-07-12T00:55:25;98396.5;;;18.73;100
17950;BME280;9100;48.700;9.316;2022-07-12T00:56:25;98398.5;;;18.71;100
17950;BME280;9100;48.700;9.316;2022-07-12T00:57:25;98397.1;;;18.68;100
17950;BME280;9100;48.700;9.316;2022-07-12T00:58:25;98392.2;;;18.67;100
17950;BME280;9100;48.700;9.316;2022-07-12T00:58:54;98394.8;;;18.67;100
17950;BME280;9100;48.700;9.316;2022-07-12T00:59:25;98394;;;18.66;100
17950;BME280;9100;48.700;9.316;2022-07-12T01:00:26;98396.8;;;18.65;100
17950;BME280;9100;48.700;9.316;2022-07-12T01:01:25;98398.29999999999;;;18.66;100
17950;BME280;9100;48.700;9.316;2022-07-12T01:02:25;98404;;;18.63;100
17950;BME280;9100;48.700;9.316;2022-07-12T01:03:25;98400.40000000001;;;18.64;100
17950;BME280;9100;48.700;9.316;2022-07-12T01:03:54;98392;;;18.62;100
17950;BME280;9100;48.700;9.316;2022-07-12T01:04:25;98400.59999999999;;;18.62;100
17950;BME280;9100;48.700;9.316;2022-07-12T01:05:25;98402.4;;;18.62;100
17950;BME280;9100;48.700;9.316;2022-07-12T01:06:25;98396.6;;;18.6;100
17950;BME280;9100;48.700;9.316;2022-07-12T01:07:25;98396.8;;;18.58;100
17950;BME280;9100;48.700;9.316;2022-07-12T01:08:25;98398.6;;;18.58;100
17950;BME280;9100;48.700;9.316;2022-07-12T01:08:54;98399.59999999999;;;18.57;100
17950;BME280;9100;48.700;9.316;2022-07-12T01:09:25;98400.40000000001;;;18.57;100
17950;BME280;9100;48.700;9.316;2022-07-12T01:10:25;98403.2;;;18.56;100
17950;BME280;9100;48.700;9.316;2022-07-12T01:11:25;98405.8;;;18.56;100
17950;BME280;9100;48.700;9.316;2022-07-12T01:12:25;98403.59999999999;;;18.53;100
17950;BME280;9100;48.700;9.316;2022-07-12T01:13:25;98409.2;;;18.5;100
17950;BME280;9100;48.700;9.316;2022-07-12T01:13:54;98403.4;;;18.48;100
17950;BME280;9100;48.700;9.316;2022-07-12T01:14:25;98407.4;;;18.5;100
17950;BME280;9100;48.700;9.316;2022-07-12T01:15:25;98413.59999999999;;;18.49;100
17950;BME280;9100;48.700;9.316;2022-07-12T01:16:25;98400.8;;;18.48;100
17950;BME280;9100;48.700;9.316;2022-07-12T01:17:26;98411.6;;;18.45;100
17950;BME280;9100;48.700;9.316;2022-07-12T01:18:26;98403.3;;;18.42;100
17950;BME280;9100;48.700;9.316;2022-07-12T01:18:54;98408.7;;;18.41;100
17950;BME280;9100;48.700;9.316;2022-07-12T01:19:25;98406.9;;;18.41;100
17950;BME280;9100;48.700;9.316;2022-07-12T01:20:25;98407.9;;;18.4;100
17950;BME280;9100;48.700;9.316;2022-07-12T01:21:25;98403.7;;;18.39;100
17950;BME280;9100;48.700;9.316;2022-07-12T01:22:26;98407.3;;;18.38;100
17950;BME280;9100;48.700;9.316;2022-07-12T01:23:25;98407.5;;;18.37;100
17950;BME280;9100;48.700;9.316;2022-07-12T01:23:54;98410.29999999999;;;18.35;100
17950;BME280;9100;48.700;9.316;2022-07-12T01:24:25;98406.7;;;18.36;100
17950;BME280;9100;48.700;9.316;2022-07-12T01:25:25;98406.7;;;18.36;100
17950;BME280;9100;48.700;9.316;2022-07-12T01:26:25;98413.7;;;18.36;100
17950;BME280;9100;48.700;9.316;2022-07-12T01:27:25;98409.5;;;18.35;100
17950;BME280;9100;48.700;9.316;2022-07-12T01:28:25;98406.1;;;18.34;100
17950;BME280;9100;48.700;9.316;2022-07-12T01:28:54;98411.3;;;18.34;100
17950;BME280;9100;48.700;9.316;2022-07-12T01:29:25;98407.7;;;18.35;100
17950;BME280;9100;48.700;9.316;2022-07-12T01:30:25;98408.7;;;18.34;100
17950;BME280;9100;48.700;9.316;2022-07-12T01:31:25;98405.3;;;18.34;100
17950;BME280;9100;48.700;9.316;2022-07-12T01:32:25;98407.1;;;18.33;100
17950;BME280;9100;48.700;9.316;2022-07-12T01:33:25;98405.5;;;18.32;100
17950;BME280;9100;48.700;9.316;2022-07-12T01:33:54;98408.1;;;18.32;100
17950;BME280;9100;48.700;9.316;2022-07-12T01:34:25;98408.1;;;18.32;100
17950;BME280;9100;48.700;9.316;2022-07-12T01:35:25;98329.6;;;17.82;100
17950;BME280;9100;48.700;9.316;2022-07-12T01:36:25;98410.7;;;18.32;100
17950;BME280;9100;48.700;9.316;2022-07-12T01:37:27;98351.8;;;17.97;100
17950;BME280;9100;48.700;9.316;2022-07-12T01:38:26;98410.1;;;18.3;100
17950;BME280;9100;48.700;9.316;2022-07-12T01:38:54;98404.2;;;18.3;100
17950;BME280;9100;48.700;9.316;2022-07-12T01:39:25;98406;;;18.29;100
17950;BME280;9100;48.700;9.316;2022-07-12T01:40:25;98401;;;18.28;100
17950;BME280;9100;48.700;9.316;2022-07-12T01:41:25;98407.4;;;18.25;100
17950;BME280;9100;48.700;9.316;2022-07-12T01:42:26;98405.8;;;18.24;100
17950;BME280;9100;48.700;9.316;2022-07-12T01:43:26;98402.59999999999;;;18.22;100
17950;BME280;9100;48.700;9.316;2022-07-12T01:43:54;98406.2;;;18.21;100
17950;BME280;9100;48.700;9.316;2022-07-12T01:44:25;98405.4;;;18.21;100
17950;BME280;9100;48.700;9.316;2022-07-12T01:45:25;98402.8;;;18.21;100
17950;BME280;9100;48.700;9.316;2022-07-12T01:46:25;98401.09999999999;;;18.15;100
17950;BME280;9100;48.700;9.316;2022-07-12T01:47:26;98407.8;;;18.16;100
17950;BME280;9100;48.700;9.316;2022-07-12T01:48:25;98398.7;;;18.13;100
17950;BME280;9100;48.700;9.316;2022-07-12T01:48:54;98407.5;;;18.12;100
17950;BME280;9100;48.700;9.316;2022-07-12T01:49:25;98398.7;;;18.13;100
17950;BME280;9100;48.700;9.316;2022-07-12T01:50:25;98404.9;;;18.12;100
17950;BME280;9100;48.700;9.316;2022-07-12T01:51:25;98398.90000000001;;;18.12;100
17950;BME280;9100;48.700;9.316;2022-07-12T01:52:25;98404.3;;;18.1;100
17950;BME280;9100;48.700;9.316;2022-07-12T01:53:25;98398.29999999999;;;18.1;100
17950;BME280;9100;48.700;9.316;2022-07-12T01:53:54;98402.70000000001;;;18.09;100
17950;BME280;9100;48.700;9.316;2022-07-12T01:54:25;98388.59999999999;;;18.05;100
17950;BME280;9100;48.700;9.316;2022-07-12T01:55:25;98400.09999999999;;;18.09;100
17950;BME280;9100;48.700;9.316;2022-07-12T01:56:25;98395.9;;;18.08;100
17950;BME280;9100;48.700;9.316;2022-07-12T01:57:25;98395.1;;;18.08;100
17950;BME280;9100;48.700;9.316;2022-07-12T01:58:25;98401.09999999999;;;18.08;100
17950;BME280;9100;48.700;9.316;2022-07-12T01:58:54;98403.09999999999;;;18.06;100
17950;BME280;9100;48.700;9.316;2022-07-12T01:59:25;98401.09999999999;;;18.08;100
17950;BME280;9100;48.700;9.316;2022-07-12T02:00:25;98395.9;;;18.08;100
17950;BME280;9100;48.700;9.316;2022-07-12T02:01:25;98395.9;;;18.08;100
17950;BME280;9100;48.700;9.316;2022-07-12T02:02:25;98395.1;;;18.08;100
17950;BME280;9100;48.700;9.316;2022-07-12T02:03:25;98394.3;;;18.07;100
17950;BME280;9100;48.700;9.316;2022-07-12T02:03:54;98389.20000000001;;;18.07;100
17950;BME280;9100;48.700;9.316;2022-07-12T02:04:25;98389.20000000001;;;18.07;100
17950;BME280;9100;48.700;9.316;2022-07-12T02:05:25;98397.90000000001;;;18.06;100
17950;BME280;9100;48.700;9.316;2022-07-12T02:06:25;98390.59999999999;;;18.03;100
17950;BME280;9100;48.700;9.316;2022-07-12T02:07:25;98394.6;;;17.99;100
17950;BME280;9100;48.700;9.316;2022-07-12T02:08:25;98392.4;;;17.96;100
17950;BME280;9100;48.700;9.316;2022-07-12T02:08:54;98396;;;17.95;100
17950;BME280;9100;48.700;9.316;2022-07-12T02:09:26;98400.40000000001;;;17.94;100
17950;BME280;9100;48.700;9.316;2022-07-12T02:10:25;98403;;;17.94;100
17950;BME280;9100;48.700;9.316;2022-07-12T02:11:25;98396.2;;;17.93;100
17950;BME280;9100;48.700;9.316;2022-07-12T02:12:25;98394.6;;;17.92;100
17950;BME280;9100;48.700;9.316;2022-07-12T02:13:25;98389.59999999999;;;17.91;100
17950;BME280;9100;48.700;9.316;2022-07-12T02:13:54;98386.3;;;17.9;100
17950;BME280;9100;48.700;9.316;2022-07-12T02:14:25;98398.2;;;17.91;100
17950;BME280;9100;48.700;9.316;2022-07-12T02:15:25;98376.59999999999;;;17.86;100
17950;BME280;9100;48.700;9.316;2022-07-12T02:16:25;98393;;;17.91;100
17950;BME280;9100;48.700;9.316;2022-07-12T02:17:25;98388.7;;;17.92;100
17950;BME280;9100;48.700;9.316;2022-07-12T02:18:25;98393.3;;;17.9;100
17950;BME280;9100;48.700;9.316;2022-07-12T02:18:54;98382.3;;;17.88;100
17950;BME280;9100;48.700;9.316;2022-07-12T02:19:25;98393.6;;;17.87;100
17950;BME280;9100;48.700;9.316;2022-07-12T02:20:25;98390.7;;;17.83;100
17950;BME280;9100;48.700;9.316;2022-07-12T02:21:25;98388.3;;;17.82;100
17950;BME280;9100;48.700;9.316;2022-07-12T02:22:25;98386.7;;;17.81;100
17950;BME280;9100;48.700;9.316;2022-07-12T02:23:25;98386.90000000001;;;17.79;100
17950;BME280;9100;48.700;9.316;2022-07-12T02:23:54;98393.1;;;17.78;100
17950;BME280;9100;48.700;9.316;2022-07-12T02:24:25;98385.40000000001;;;17.78;100
17950;BME280;9100;48.700;9.316;2022-07-12T02:25:25;98381;;;17.79;100
17950;BME280;9100;48.700;9.316;2022-07-12T02:26:25;98379.4;;;17.78;100
17950;BME280;9100;48.700;9.316;2022-07-12T02:27:25;98392.3;;;17.78;100
17950;BME280;9100;48.700;9.316;2022-07-12T02:28:25;98396.90000000001;;;17.76;100
17950;BME280;9100;48.700;9.316;2022-07-12T02:28:54;98394.3;;;17.76;100
17950;BME280;9100;48.700;9.316;2022-07-12T02:29:25;98390.9;;;17.75;100
17950;BME280;9100;48.700;9.316;2022-07-12T02:30:25;98397.90000000001;;;17.75;100
17950;BME280;9100;48.700;9.316;2022-07-12T02:31:25;98396.3;;;17.74;100
17950;BME280;9100;48.700;9.316;2022-07-12T02:32:25;98385.40000000001;;;17.72;100
17950;BME280;9100;48.700;9.316;2022-07-12T02:33:25;98399.5;;;17.69;100
17950;BME280;9100;48.700;9.316;2022-07-12T02:33:54;98398.7;;;17.69;100
17950;BME280;9100;48.700;9.316;2022-07-12T02:34:25;98389.4;;;17.68;100
17950;BME280;9100;48.700;9.316;2022-07-12T02:35:25;98391.4;;;17.66;100
17950;BME280;9100;48.700;9.316;2022-07-12T02:36:25;98399.5;;;17.63;100
17950;BME280;9100;48.700;9.316;2022-07-12T02:37:25;98394.6;;;17.61;100
17950;BME280;9100;48.700;9.316;2022-07-12T02:38:26;98393.8;;;17.61;100
17950;BME280;9100;48.700;9.316;2022-07-12T02:38:54;98392.2;;;17.6;100
17950;BME280;9100;48.700;9.316;2022-07-12T02:39:25;98395.8;;;17.59;100
17950;BME280;9100;48.700;9.316;2022-07-12T02:40:25;98395.8;;;17.59;100
17950;BME280;9100;48.700;9.316;2022-07-12T02:41:25;98389;;;17.58;100
17950;BME280;9100;48.700;9.316;2022-07-12T02:42:25;98393.4;;;17.57;100
17950;BME280;9100;48.700;9.316;2022-07-12T02:43:26;98391;;;17.56;100
17950;BME280;9100;48.700;9.316;2022-07-12T02:43:54;98396.2;;;17.56;100
17950;BME280;9100;48.700;9.316;2022-07-12T02:44:25;98387.40000000001;;;17.57;100
17950;BME280;9100;48.700;9.316;2022-07-12T02:45:25;98381.4;;;17.56;100
17950;BME280;9100;48.700;9.316;2022-07-12T02:46:25;98388.2;;;17.57;100
17950;BME280;9100;48.700;9.316;2022-07-12T02:47:25;98391;;;17.56;100
17950;BME280;9100;48.700;9.316;2022-07-12T02:48:25;98385.40000000001;;;17.52;100
17950;BME280;9100;48.700;9.316;2022-07-12T02:48:54;98389.8;;;17.52;100
17950;BME280;9100;48.700;9.316;2022-07-12T02:49:25;98389.8;;;17.52;100
17950;BME280;9100;48.700;9.316;2022-07-12T02:50:25;98393.4;;;17.51;100
17950;BME280;9100;48.700;9.316;2022-07-12T02:51:25;98393.4;;;17.51;100
17950;BME280;9100;48.700;9.316;2022-07-12T02:52:25;98388.2;;;17.51;100
17950;BME280;9100;48.700;9.316;2022-07-12T02:53:25;98384;;;17.5;100
17950;BME280;9100;48.700;9.316;2022-07-12T02:53:54;98383.5;;;17.48;100
17950;BME280;9100;48.700;9.316;2022-07-12T02:54:25;98380.3;;;17.45;100
17950;BME280;9100;48.700;9.316;2022-07-12T02:55:25;98387.59999999999;;;17.49;100
17950;BME280;9100;48.700;9.316;2022-07-12T02:56:25;98384.3;;;17.48;100
17950;BME280;9100;48.700;9.316;2022-07-12T02:57:25;98387;;;17.46;100
17950;BME280;9100;48.700;9.316;2022-07-12T02:58:25;98387.8;;;17.47;100
17950;BME280;9100;48.700;9.316;2022-07-12T02:58:54;98389.59999999999;;;17.46;100
17950;BME280;9100;48.700;9.316;2022-07-12T02:59:25;98383.5;;;17.48;100
17950;BME280;9100;48.700;9.316;2022-07-12T03:00:25;98382.7;;;17.47;100
17950;BME280;9100;48.700;9.316;2022-07-12T03:01:25;98386;;;17.48;100
17950;BME280;9100;48.700;9.316;2022-07-12T03:02:25;98384.7;;;17.45;100
17950;BME280;9100;48.700;9.316;2022-07-12T03:03:25;98391;;;17.42;100
17950;BME280;9100;48.700;9.316;2022-07-12T03:03:54;98382.7;;;17.4;100
17950;BME280;9100;48.700;9.316;2022-07-12T03:04:25;98387.59999999999;;;17.42;100
17950;BME280;9100;48.700;9.316;2022-07-12T03:05:25;98375;;;17.34;100
17950;BME280;9100;48.700;9.316;2022-07-12T03:06:25;98389.8;;;17.38;100
17950;BME280;9100;48.700;9.316;2022-07-12T03:07:25;98391.7;;;17.38;100
17950;BME280;9100;48.700;9.316;2022-07-12T03:08:25;98393.4;;;17.37;100
17950;BME280;9100;48.700;9.316;2022-07-12T03:08:54;98392.8;;;17.35;100
17950;BME280;9100;48.700;9.316;2022-07-12T03:09:25;98388.3;;;17.37;100
17950;BME280;9100;48.700;9.316;2022-07-12T03:10:25;98391.8;;;17.36;100
17950;BME280;9100;48.700;9.316;2022-07-12T03:11:25;98390.3;;;17.35;100
17950;BME280;9100;48.700;9.316;2022-07-12T03:12:25;98391.6;;;17.31;100
17950;BME280;9100;48.700;9.316;2022-07-12T03:13:25;98385.90000000001;;;17.29;100
17950;BME280;9100;48.700;9.316;2022-07-12T03:13:54;98391.09999999999;;;17.29;100
17950;BME280;9100;48.700;9.316;2022-07-12T03:14:25;98389.5;;;17.28;100
17950;BME280;9100;48.700;9.316;2022-07-12T03:15:25;98389.5;;;17.28;100
17950;BME280;9100;48.700;9.316;2022-07-12T03:16:25;98397.40000000001;;;17.27;100
17950;BME280;9100;48.700;9.316;2022-07-12T03:17:25;98400.2;;;17.25;100
17950;BME280;9100;48.700;9.316;2022-07-12T03:18:25;98395;;;17.25;100
17950;BME280;9100;48.700;9.316;2022-07-12T03:18:54;98397.79999999999;;;17.24;100
17950;BME280;9100;48.700;9.316;2022-07-12T03:19:25;98398.6;;;17.24;100
17950;BME280;9100;48.700;9.316;2022-07-12T03:20:25;98399.59999999999;;;17.23;100
17950;BME280;9100;48.700;9.316;2022-07-12T03:21:25;98392.9;;;17.22;100
17950;BME280;9100;48.700;9.316;2022-07-12T03:22:25;98395.5;;;17.22;100
17950;BME280;9100;48.700;9.316;2022-07-12T03:23:25;98399.8;;;17.22;100
17950;BME280;9100;48.700;9.316;2022-07-12T03:23:54;98404.2;;;17.21;100
17950;BME280;9100;48.700;9.316;2022-07-12T03:24:25;98399.8;;;17.22;100
17950;BME280;9100;48.700;9.316;2022-07-12T03:25:25;98400;;;17.2;100
17950;BME280;9100;48.700;9.316;2022-07-12T03:26:25;98406.6;;;17.16;100
17950;BME280;9100;48.700;9.316;2022-07-12T03:27:25;98405.4;;;17.12;100
17950;BME280;9100;48.700;9.316;2022-07-12T03:28:25;98409;;;17.05;100
17950;BME280;9100;48.700;9.316;2022-07-12T03:28:54;98405;;;17.02;100
17950;BME280;9100;48.700;9.316;2022-07-12T03:29:25;98402.70000000001;;;17.01;100
17950;BME280;9100;48.700;9.316;2022-07-12T03:30:25;98405.4;;;16.99;100
17950;BME280;9100;48.700;9.316;2022-07-12T03:31:25;98411;;;16.96;100
17950;BME280;9100;48.700;9.316;2022-07-12T03:32:25;98409.79999999999;;;16.92;100
17950;BME280;9100;48.700;9.316;2022-07-12T03:33:25;98410.2;;;16.89;100
17950;BME280;9100;48.700;9.316;2022-07-12T03:33:54;98409.40000000001;;;16.88;100
17950;BME280;9100;48.700;9.316;2022-07-12T03:34:25;98408.6;;;16.88;100
17950;BME280;9100;48.700;9.316;2022-07-12T03:35:25;98410.6;;;16.86;100
17950;BME280;9100;48.700;9.316;2022-07-12T03:36:25;98411.6;;;16.85;100
17950;BME280;9100;48.700;9.316;2022-07-12T03:37:25;98411;;;16.83;100
17950;BME280;9100;48.700;9.316;2022-07-12T03:38:25;98412.2;;;16.8;100
17950;BME280;9100;48.700;9.316;2022-07-12T03:38:54;98415.8;;;16.79;100
17950;BME280;9100;48.700;9.316;2022-07-12T03:39:25;98411.40000000001;;;16.8;100
17950;BME280;9100;48.700;9.316;2022-07-12T03:40:25;98413.4;;;16.78;100
17950;BME280;9100;48.700;9.316;2022-07-12T03:41:25;98414.59999999999;;;16.75;100
17950;BME280;9100;48.700;9.316;2022-07-12T03:42:25;98410.6;;;16.73;100
17950;BME280;9100;48.700;9.316;2022-07-12T03:43:25;98408.2;;;16.71;100
17950;BME280;9100;48.700;9.316;2022-07-12T03:43:54;98419.6;;;16.7;100
17950;BME280;9100;48.700;9.316;2022-07-12T03:44:25;98414.20000000001;;;16.72;100
17950;BME280;9100;48.700;9.316;2022-07-12T03:45:25;98420.4;;;16.71;100
17950;BME280;9100;48.700;9.316;2022-07-12T03:46:25;98416.2;;;16.7;100
17950;BME280;9100;48.700;9.316;2022-07-12T03:47:25;98414.59999999999;;;16.75;100
17950;BME280;9100;48.700;9.316;2022-07-12T03:48:25;98423.1;;;16.76;100
17950;BME280;9100;48.700;9.316;2022-07-12T03:48:54;98428.3;;;16.76;100
17950;BME280;9100;48.700;9.316;2022-07-12T03:49:25;98429.9;;;16.77;100
17950;BME280;9100;48.700;9.316;2022-07-12T03:50:25;98429.7;;;16.78;100
17950;BME280;9100;48.700;9.316;2022-07-12T03:51:25;98430.5;;;16.79;100
17950;BME280;9100;48.700;9.316;2022-07-12T03:52:25;98426.9;;;16.8;100
17950;BME280;9100;48.700;9.316;2022-07-12T03:53:25;98431.1;;;16.81;100
17950;BME280;9100;48.700;9.316;2022-07-12T03:53:54;98429.3;;;16.81;100
17950;BME280;9100;48.700;9.316;2022-07-12T03:54:25;98434.5;;;16.81;100
17950;BME280;9100;48.700;9.316;2022-07-12T03:55:25;98424.90000000001;;;16.82;100
17950;BME280;9100;48.700;9.316;2022-07-12T03:56:25;98430.9;;;16.82;100
17950;BME280;9100;48.700;9.316;2022-07-12T03:57:25;98436.8;;;16.83;100
17950;BME280;9100;48.700;9.316;2022-07-12T03:58:25;98429.7;;;16.85;100
17950;BME280;9100;48.700;9.316;2022-07-12T03:58:54;98434.90000000001;;;16.85;100
17950;BME280;9100;48.700;9.316;2022-07-12T03:59:25;98430.5;;;16.85;100
17950;BME280;9100;48.700;9.316;2022-07-12T04:00:25;98427.70000000001;;;16.87;100
17950;BME280;9100;48.700;9.316;2022-07-12T04:01:25;98431.9;;;16.88;100
17950;BME280;9100;48.700;9.316;2022-07-12T04:02:25;98431.1;;;16.87;100
17950;BME280;9100;48.700;9.316;2022-07-12T04:03:25;98432.9;;;16.87;100
17950;BME280;9100;48.700;9.316;2022-07-12T04:03:54;98433.7;;;16.87;100
17950;BME280;9100;48.700;9.316;2022-07-12T04:04:25;98439.59999999999;;;16.88;100
17950;BME280;9100;48.700;9.316;2022-07-12T04:05:25;98442.2;;;16.88;100
17950;BME280;9100;48.700;9.316;2022-07-12T04:06:25;98439.59999999999;;;16.88;100
17950;BME280;9100;48.700;9.316;2022-07-12T04:07:25;98447.40000000001;;;16.88;100
17950;BME280;9100;48.700;9.316;2022-07-12T04:08:25;98452.5;;;16.88;100
17950;BME280;9100;48.700;9.316;2022-07-12T04:08:54;98452.5;;;16.88;100
17950;BME280;9100;48.700;9.316;2022-07-12T04:09:25;98447.2;;;16.89;100
17950;BME280;9100;48.700;9.316;2022-07-12T04:10:25;98451.2;;;16.92;100
17950;BME280;9100;48.700;9.316;2022-07-12T04:11:25;98457.3;;;16.91;100
17950;BME280;9100;48.700;9.316;2022-07-12T04:12:25;98454.1;;;16.89;100
17950;BME280;9100;48.700;9.316;2022-07-12T04:13:25;98457.1;;;16.86;100
17950;BME280;9100;48.700;9.316;2022-07-12T04:13:54;98451.5;;;16.82;100
17950;BME280;9100;48.700;9.316;2022-07-12T04:14:25;98450.8;;;16.82;100
17950;BME280;9100;48.700;9.316;2022-07-12T04:15:25;98451.9;;;16.79;100
17950;BME280;9100;48.700;9.316;2022-07-12T04:16:25;98452.20000000001;;;16.78;100
17950;BME280;9100;48.700;9.316;2022-07-12T04:17:25;98450.59999999999;;;16.77;100
17950;BME280;9100;48.700;9.316;2022-07-12T04:18:25;98448;;;16.77;100
17950;BME280;9100;48.700;9.316;2022-07-12T04:18:54;98450.59999999999;;;16.77;100
17950;BME280;9100;48.700;9.316;2022-07-12T04:19:25;98448.6;;;16.79;100
17950;BME280;9100;48.700;9.316;2022-07-12T04:20:25;98451.9;;;16.79;100
17950;BME280;9100;48.700;9.316;2022-07-12T04:21:25;98453.7;;;16.79;100
17950;BME280;9100;48.700;9.316;2022-07-12T04:22:25;98448.8;;;16.77;100
17950;BME280;9100;48.700;9.316;2022-07-12T04:23:25;98450;;;16.75;100
17950;BME280;9100;48.700;9.316;2022-07-12T04:23:54;98453.5;;;16.74;100
17950;BME280;9100;48.700;9.316;2022-07-12T04:24:25;98449.2;;;16.74;100
17950;BME280;9100;48.700;9.316;2022-07-12T04:25:25;98454.3;;;16.74;100
17950;BME280;9100;48.700;9.316;2022-07-12T04:26:25;98453.5;;;16.74;100
17950;BME280;9100;48.700;9.316;2022-07-12T04:27:25;98444.2;;;16.73;100
17950;BME280;9100;48.700;9.316;2022-07-12T04:28:25;98457.1;;;16.73;100
17950;BME280;9100;48.700;9.316;2022-07-12T04:28:54;98444.8;;;16.75;100
17950;BME280;9100;48.700;9.316;2022-07-12T04:29:25;98446.40000000001;;;16.76;100
17950;BME280;9100;48.700;9.316;2022-07-12T04:30:25;98445.2;;;16.78;100
17950;BME280;9100;48.700;9.316;2022-07-12T04:31:25;98448.8;;;16.77;100
17950;BME280;9100;48.700;9.316;2022-07-12T04:32:25;98443.8;;;16.76;100
17950;BME280;9100;48.700;9.316;2022-07-12T04:33:25;98447.40000000001;;;16.75;100